Time;durP1;ratioP1;P1;durP2;ratioP2;P2;SDS_P1;SDS_P2;PMS_P1;PMS_P2;Temp;Humidity;BMP_temperature;BMP_pressure;BME280_temperature;BME280_humidity;BME280_pressure;Samples;Min_cycle;Max_cycle;Signal;HPM_P1;HPM_P2
2021/09/10 00:01:44;;;;;;;0.70;0.60;;;;;;;19.87;100.00;-19969.97;6276489;22;20889;-71
2021/09/10 00:04:12;;;;;;;0.70;0.70;;;;;;;19.97;100.00;-20028.44;6276997;22;20467;-71
2021/09/10 00:06:39;;;;;;;4.60;0.93;;;;;;;19.97;100.00;-20211.66;6276833;22;20411;-70
2021/09/10 00:09:08;;;;;;;0.70;0.60;;;;;;;20.04;100.00;-20231.13;6276996;22;20429;-71
2021/09/10 00:11:35;;;;;;;0.80;0.80;;;;;;;19.96;100.00;-20282.47;6277056;22;20469;-71
2021/09/10 00:14:03;;;;;;;0.70;0.70;;;;;;;19.89;100.00;-20496.78;6250884;22;20477;-71
2021/09/10 00:16:29;;;;;;;0.70;0.60;;;;;;;19.90;100.00;-20652.13;6277234;22;20432;-71
2021/09/10 00:18:57;;;;;;;0.70;0.60;;;;;;;19.75;100.00;-20958.47;6276233;22;20397;-72
2021/09/10 00:21:24;;;;;;;0.70;0.60;;;;;;;19.74;100.00;-21216.78;6276341;22;20467;-72
2021/09/10 00:23:51;;;;;;;0.70;0.60;;;;;;;19.78;100.00;-21217.88;6224057;22;20535;-71
2021/09/10 00:26:19;;;;;;;1.10;1.00;;;;;;;19.81;100.00;-21218.56;6249747;22;20854;-71
2021/09/10 00:28:48;;;;;;;0.90;0.80;;;;;;;20.10;100.00;-21226.34;6276235;22;20458;-72
2021/09/10 00:31:15;;;;;;;0.70;0.70;;;;;;;19.99;100.00;-21223.47;6249234;22;20391;-71
2021/09/10 00:33:44;;;;;;;0.70;0.60;;;;;;;20.08;100.00;-20628.91;6225286;22;20747;-71
2021/09/10 00:36:11;;;;;;;0.70;0.63;;;;;;;19.99;100.00;-19871.28;6276104;22;20407;-71
2021/09/10 00:38:38;;;;;;;0.70;0.70;;;;;;;19.96;100.00;-19410.22;6278704;22;20403;-71
2021/09/10 00:41:05;;;;;;;0.70;0.63;;;;;;;20.00;100.00;-19118.66;6257754;22;20389;-72
2021/09/10 00:43:37;;;;;;;1.53;1.20;;;;;;;19.91;100.00;-18788.50;6276288;22;20454;-71
2021/09/10 00:46:05;;;;;;;0.73;0.67;;;;;;;19.86;100.00;-18593.91;6276442;22;20477;-70
2021/09/10 00:48:32;;;;;;;0.70;0.60;;;;;;;20.01;100.00;-17994.31;6249267;22;20487;-71
2021/09/10 00:51:00;;;;;;;0.70;0.60;;;;;;;19.98;100.00;-17759.63;6249376;22;20379;-71
2021/09/10 00:53:27;;;;;;;0.90;0.90;;;;;;;19.84;100.00;-17634.38;6248934;22;20410;-71
2021/09/10 00:55:55;;;;;;;0.70;0.70;;;;;;;19.85;100.00;-17540.44;6249100;22;20927;-71
2021/09/10 00:58:22;;;;;;;0.73;0.67;;;;;;;19.90;100.00;-17269.22;6276613;22;20394;-70
2021/09/10 01:00:51;;;;;;;0.70;0.60;;;;;;;19.86;100.00;-17072.44;6275842;22;20396;-71
2021/09/10 01:03:19;;;;;;;0.97;0.80;;;;;;;19.76;100.00;-17233.41;6249635;22;20893;-71
2021/09/10 01:05:46;;;;;;;0.70;0.70;;;;;;;19.98;100.00;-16764.38;6249244;22;20700;-71
2021/09/10 01:08:13;;;;;;;0.70;0.70;;;;;;;19.89;100.00;-16546.31;6249174;22;20450;-71
2021/09/10 01:10:41;;;;;;;0.80;0.70;;;;;;;19.94;100.00;-16374.19;6277172;22;20421;-71
2021/09/10 01:13:33;;;;;;;0.70;0.60;;;;;;;20.02;100.00;-15807.81;6226658;22;20400;-71
2021/09/10 01:16:05;;;;;;;0.80;0.80;;;;;;;19.92;100.00;-15238.13;6250740;22;20522;-70
2021/09/10 01:18:32;;;;;;;1.43;1.33;;;;;;;20.04;100.00;-14743.56;6251341;22;20933;-71
2021/09/10 01:20:59;;;;;;;0.80;0.80;;;;;;;20.26;100.00;-13929.13;6278286;22;20390;-70
2021/09/10 01:23:26;;;;;;;0.70;0.70;;;;;;;20.00;100.00;-13833.47;6278255;22;20405;-71
2021/09/10 01:25:58;;;;;;;0.70;0.70;;;;;;;20.07;100.00;-13678.94;6277744;22;20384;-71
2021/09/10 01:28:26;;;;;;;0.70;0.67;;;;;;;20.09;100.00;-13648.66;6278463;22;20368;-70
2021/09/10 01:30:53;;;;;;;0.93;0.93;;;;;;;20.10;100.00;-13554.59;6277795;22;20797;-71
2021/09/10 01:33:22;;;;;;;1.20;1.10;;;;;;;20.13;100.00;-13481.13;6224775;22;20398;-73
2021/09/10 01:35:49;;;;;;;0.70;0.60;;;;;;;20.12;100.00;-13577.81;6250708;22;20450;-71
2021/09/10 01:38:39;;;;;;;0.70;0.67;;;;;;;20.25;100.00;-13401.25;6256735;22;20923;-71
2021/09/10 01:41:09;;;;;;;0.80;0.70;;;;;;;19.85;100.00;-14600.28;6278248;22;20413;-71
2021/09/10 01:43:36;;;;;;;0.90;0.73;;;;;;;19.84;100.00;-15371.69;6251243;22;20442;-71
2021/09/10 01:46:03;;;;;;;0.70;0.60;;;;;;;19.98;100.00;-15962.41;6276630;22;20754;-71
2021/09/10 01:48:30;;;;;;;0.80;0.70;;;;;;;19.85;100.00;-16611.69;6278038;22;20437;-71
2021/09/10 01:50:57;;;;;;;0.70;0.60;;;;;;;19.99;100.00;-16538.09;6250706;22;20443;-71
2021/09/10 01:53:45;;;;;;;0.90;0.90;;;;;;;20.11;100.00;-15822.22;6278594;22;20454;-72
2021/09/10 01:56:14;;;;;;;0.73;0.70;;;;;;;20.02;100.00;-15031.03;6250471;22;20457;-71
2021/09/10 01:58:41;;;;;;;0.70;0.70;;;;;;;20.00;100.00;-14309.81;6278274;22;20869;-71
2021/09/10 02:01:08;;;;;;;3.43;0.93;;;;;;;19.93;100.00;-13715.19;6251286;22;20409;-71
2021/09/10 02:03:36;;;;;;;0.70;0.70;;;;;;;19.88;100.00;-13171.66;6278232;22;20390;-71
2021/09/10 02:06:04;;;;;;;0.70;0.60;;;;;;;19.90;100.00;-12654.66;6277753;22;20392;-71
2021/09/10 02:08:31;;;;;;;0.70;0.70;;;;;;;19.84;100.00;-12478.09;6250782;22;20517;-71
2021/09/10 02:11:00;;;;;;;0.70;0.60;;;;;;;19.82;100.00;-12286.69;6278327;22;20385;-71
2021/09/10 02:13:29;;;;;;;0.70;0.60;;;;;;;19.79;100.00;-12141.12;6251420;22;20707;-70
2021/09/10 02:15:57;;;;;;;0.70;0.60;;;;;;;19.70;100.00;-12050.72;6277682;22;20419;-73
2021/09/10 02:18:24;;;;;;;0.70;0.63;;;;;;;19.71;100.00;-12040.72;6277825;22;20418;-71
2021/09/10 02:20:51;;;;;;;0.80;0.80;;;;;;;19.71;100.00;-12020.28;6277617;22;20390;-71
2021/09/10 02:23:18;;;;;;;0.80;0.70;;;;;;;19.69;100.00;-11992.00;6277291;22;20442;-71
2021/09/10 02:25:45;;;;;;;0.80;0.70;;;;;;;19.63;100.00;-12049.91;6277182;22;20415;-71
2021/09/10 02:28:12;;;;;;;0.70;0.60;;;;;;;19.61;100.00;-12087.88;6277435;22;20831;-71
2021/09/10 02:30:40;;;;;;;0.70;0.60;;;;;;;19.55;100.00;-12143.16;6250781;22;20908;-71
2021/09/10 02:33:08;;;;;;;0.70;0.70;;;;;;;19.55;100.00;-12051.47;6277759;22;20839;-71
2021/09/10 02:35:35;;;;;;;0.70;0.70;;;;;;;19.42;100.00;-12266.31;6277705;22;20422;-71
2021/09/10 02:38:02;;;;;;;0.80;0.80;;;;;;;19.37;100.00;-12645.16;6278157;22;20408;-71
2021/09/10 02:40:29;;;;;;;0.70;0.70;;;;;;;19.10;100.00;-13761.25;6277036;22;20398;-70
2021/09/10 02:42:56;;;;;;;0.70;0.60;;;;;;;19.21;100.00;-14086.09;6277995;22;20396;-71
2021/09/10 02:45:23;;;;;;;0.80;0.80;;;;;;;19.27;100.00;-14507.00;6277360;22;20483;-71
2021/09/10 02:47:52;;;;;;;0.70;0.60;;;;;;;19.25;100.00;-14888.31;6250614;22;20801;-71
2021/09/10 02:50:20;;;;;;;0.70;0.70;;;;;;;19.31;100.00;-15095.41;6277902;22;20435;-71
2021/09/10 02:52:46;;;;;;;0.70;0.60;;;;;;;18.96;100.00;-16139.28;6250190;22;20427;-71
2021/09/10 02:55:14;;;;;;;0.77;0.70;;;;;;;19.08;100.00;-17298.19;6277140;22;20390;-71
2021/09/10 02:57:41;;;;;;;0.80;0.80;;;;;;;19.10;100.00;-18142.22;6251216;22;20880;-70
2021/09/10 03:00:09;;;;;;;0.70;0.70;;;;;;;19.16;100.00;-18862.75;6277060;22;20395;-71
2021/09/10 03:02:36;;;;;;;0.70;0.70;;;;;;;19.10;100.00;-19250.00;6277443;22;20482;-70
2021/09/10 03:05:07;;;;;;;0.80;0.70;;;;;;;19.13;100.00;-19377.72;6249736;22;20444;-70
2021/09/10 03:07:35;;;;;;;0.70;0.63;;;;;;;19.07;100.00;-19300.06;6276666;22;20917;-71
2021/09/10 03:10:03;;;;;;;1.47;1.33;;;;;;;19.04;100.00;-19266.31;6277260;22;20428;-71
2021/09/10 03:12:30;;;;;;;0.70;0.60;;;;;;;19.06;100.00;-19282.16;6276863;22;20444;-71
2021/09/10 03:14:57;;;;;;;1.10;0.90;;;;;;;19.06;100.00;-19282.03;6250969;22;20730;-71
2021/09/10 03:17:26;;;;;;;0.77;0.70;;;;;;;19.12;100.00;-19219.88;6281119;22;20509;-70
2021/09/10 03:19:53;;;;;;;1.20;1.10;;;;;;;19.12;100.00;-19260.63;6278983;22;20377;-71
2021/09/10 03:22:21;;;;;;;0.70;0.70;;;;;;;19.13;100.00;-19293.78;6276626;22;20425;-71
2021/09/10 03:24:49;;;;;;;0.70;0.60;;;;;;;19.09;100.00;-19445.19;6224226;22;20402;-71
2021/09/10 03:27:17;;;;;;;0.70;0.60;;;;;;;19.06;100.00;-19619.81;6249485;22;20489;-71
2021/09/10 03:29:44;;;;;;;0.70;0.60;;;;;;;19.03;100.00;-19641.94;6275513;22;20770;-71
2021/09/10 03:32:10;;;;;;;0.70;0.70;;;;;;;19.03;100.00;-19639.53;6276724;22;20435;-72
2021/09/10 03:34:37;;;;;;;1.43;1.33;;;;;;;18.99;100.00;-19640.94;6276578;22;20730;-71
2021/09/10 03:37:05;;;;;;;0.70;0.60;;;;;;;19.00;100.00;-19618.47;6249225;22;20463;-72
2021/09/10 03:39:33;;;;;;;0.70;0.70;;;;;;;18.96;100.00;-19609.72;6249637;22;20466;-70
2021/09/10 03:42:00;;;;;;;0.70;0.60;;;;;;;18.90;100.00;-19582.84;6249459;22;20694;-71
2021/09/10 03:44:27;;;;;;;1.53;1.43;;;;;;;18.87;100.00;-19523.72;6276159;22;20482;-71
2021/09/10 03:46:54;;;;;;;0.70;0.70;;;;;;;18.83;100.00;-19510.28;6276973;22;20384;-71
2021/09/10 03:49:21;;;;;;;0.70;0.60;;;;;;;18.85;100.00;-19368.34;6250035;22;20383;-71
2021/09/10 03:51:48;;;;;;;0.70;0.70;;;;;;;18.83;100.00;-19261.47;6276438;22;20420;-70
2021/09/10 03:54:15;;;;;;;0.70;0.60;;;;;;;18.82;100.00;-19136.81;6248143;22;20420;-70
2021/09/10 03:56:44;;;;;;;0.70;0.60;;;;;;;18.31;100.00;-20278.91;6276393;22;20802;-70
2021/09/10 03:59:11;;;;;;;0.70;0.60;;;;;;;18.44;100.00;-20982.03;6249297;22;20398;-71
2021/09/10 04:01:38;;;;;;;0.70;0.70;;;;;;;18.50;100.00;-21183.53;6276504;22;20873;-71
2021/09/10 04:04:08;;;;;;;0.70;0.60;;;;;;;18.50;100.00;-21183.53;6276495;22;20733;-70
2021/09/10 04:06:37;;;;;;;0.70;0.60;;;;;;;18.49;100.00;-21183.25;6249725;22;20501;-71
2021/09/10 04:09:04;;;;;;;0.70;0.60;;;;;;;18.46;100.00;-21182.44;6276008;22;20427;-71
2021/09/10 04:11:32;;;;;;;0.70;0.60;;;;;;;18.56;100.00;-21185.03;6248333;22;20416;-71
2021/09/10 04:14:00;;;;;;;0.70;0.60;;;;;;;18.51;100.00;-21183.66;6249530;22;20403;-71
2021/09/10 04:16:50;;;;;;;1.10;1.00;;;;;;;18.50;100.00;-21183.41;6276548;22;20916;-71
2021/09/10 04:19:17;;;;;;;0.70;0.70;;;;;;;18.27;100.00;-21177.38;6276469;22;20764;-71
2021/09/10 04:21:44;;;;;;;1.00;1.00;;;;;;;18.46;100.00;-21182.31;6276056;22;20429;-71
2021/09/10 04:24:17;;;;;;;0.70;0.70;;;;;;;18.41;100.00;-21180.94;6276339;22;20795;-72
2021/09/10 04:26:44;;;;;;;0.70;0.60;;;;;;;18.33;100.00;-21179.00;6275909;22;20366;-72
2021/09/10 04:29:13;;;;;;;0.73;0.70;;;;;;;18.19;100.00;-21175.03;6276250;22;20760;-72
2021/09/10 04:31:40;;;;;;;0.70;0.67;;;;;;;18.18;100.00;-21174.91;6276567;22;20847;-72
2021/09/10 04:34:07;;;;;;;0.70;0.60;;;;;;;18.35;100.00;-21179.44;6249478;22;20774;-72
2021/09/10 04:36:37;;;;;;;0.70;0.60;;;;;;;18.26;100.00;-21177.09;6248897;22;20449;-71
2021/09/10 04:39:04;;;;;;;0.73;0.70;;;;;;;18.21;100.00;-21175.72;6276542;22;20456;-71
2021/09/10 04:41:31;;;;;;;1.40;0.87;;;;;;;18.23;100.00;-21176.13;6275939;22;20390;-71
2021/09/10 04:43:58;;;;;;;0.70;0.60;;;;;;;18.28;100.00;-21177.66;6249963;22;20490;-71
2021/09/10 04:46:27;;;;;;;0.70;0.60;;;;;;;18.63;100.00;-21186.97;6278421;22;20389;-71
2021/09/10 04:48:54;;;;;;;0.70;0.60;;;;;;;18.99;100.00;-21196.69;6278780;22;20380;-72
2021/09/10 04:51:21;;;;;;;0.70;0.70;;;;;;;19.10;100.00;-21199.56;6278250;22;20389;-72
2021/09/10 04:53:48;;;;;;;0.80;0.77;;;;;;;19.17;100.00;-21201.47;6251758;22;20398;-71
2021/09/10 04:56:15;;;;;;;0.70;0.63;;;;;;;19.23;100.00;-21203.09;6278341;22;20421;-70
2021/09/10 04:58:43;;;;;;;0.70;0.60;;;;;;;19.23;100.00;-21203.09;6251582;22;20924;-71
2021/09/10 05:01:10;;;;;;;0.83;0.80;;;;;;;19.24;100.00;-21203.25;6278051;22;20461;-71
2021/09/10 05:03:39;;;;;;;0.70;0.60;;;;;;;19.21;100.00;-21202.56;6251569;22;20396;-71
2021/09/10 05:06:06;;;;;;;0.80;0.80;;;;;;;19.25;100.00;-21203.66;6278028;22;20429;-71
2021/09/10 05:08:33;;;;;;;0.70;0.70;;;;;;;19.18;100.00;-21123.53;6277995;22;20817;-70
2021/09/10 05:11:01;;;;;;;0.70;0.60;;;;;;;19.19;100.00;-20783.69;6278537;22;20393;-71
2021/09/10 05:13:27;;;;;;;0.70;0.60;;;;;;;19.23;100.00;-20330.06;6278133;22;20389;-73
2021/09/10 05:15:55;;;;;;;0.70;0.70;;;;;;;19.23;100.00;-19860.28;6278192;22;20474;-70
2021/09/10 05:18:22;;;;;;;0.70;0.60;;;;;;;19.22;100.00;-19443.44;6278445;22;20418;-71
2021/09/10 05:20:50;;;;;;;0.70;0.70;;;;;;;19.19;100.00;-18954.91;6277778;22;21036;-71
2021/09/10 05:23:17;;;;;;;0.70;0.60;;;;;;;19.33;100.00;-18287.16;6276809;22;20403;-72
2021/09/10 05:25:44;;;;;;;0.70;0.63;;;;;;;19.34;100.00;-17598.50;6276860;22;20439;-71
2021/09/10 05:28:11;;;;;;;0.90;0.80;;;;;;;19.41;100.00;-16773.44;6277734;22;20874;-71
2021/09/10 05:30:38;;;;;;;0.70;0.70;;;;;;;19.42;100.00;-15987.66;6278211;22;20723;-70
2021/09/10 05:33:05;;;;;;;1.07;1.07;;;;;;;19.41;100.00;-15252.22;6251072;22;20428;-71
2021/09/10 05:35:32;;;;;;;0.70;0.60;;;;;;;19.37;100.00;-14592.53;6278103;22;20388;-70
2021/09/10 05:38:00;;;;;;;0.70;0.60;;;;;;;19.43;100.00;-13837.56;6276599;22;20472;-70
2021/09/10 05:40:27;;;;;;;0.70;0.60;;;;;;;19.43;100.00;-13139.91;6278170;22;20388;-70
2021/09/10 05:42:54;;;;;;;0.70;0.60;;;;;;;19.44;100.00;-12508.53;6277144;22;20396;-71
2021/09/10 05:45:21;;;;;;;0.70;0.60;;;;;;;19.47;100.00;-11775.41;6251380;22;20410;-70
2021/09/10 05:47:48;;;;;;;0.70;0.60;;;;;;;19.46;100.00;-11133.28;6278083;22;20386;-71
2021/09/10 05:50:17;;;;;;;0.70;0.60;;;;;;;19.41;100.00;-10615.50;6278057;22;20387;-71
2021/09/10 05:52:45;;;;;;;0.70;0.70;;;;;;;19.38;100.00;-10062.19;6250479;22;20433;-70
2021/09/10 05:55:14;;;;;;;0.70;0.60;;;;;;;19.41;100.00;-9440.56;6277327;22;20823;-72
2021/09/10 05:57:41;;;;;;;0.70;0.60;;;;;;;19.39;100.00;-8979.03;6277626;22;20419;-71
2021/09/10 06:00:10;;;;;;;0.70;0.60;;;;;;;19.43;100.00;-8594.34;6277505;22;20393;-71
2021/09/10 06:02:40;;;;;;;0.80;0.80;;;;;;;19.50;100.00;-8097.53;6278189;22;20362;-71
2021/09/10 06:05:08;;;;;;;0.70;0.70;;;;;;;19.62;100.00;-7616.09;6251339;22;20725;-71
2021/09/10 06:07:35;;;;;;;0.70;0.70;;;;;;;19.77;100.00;-6917.59;6250777;22;20483;-71
2021/09/10 06:10:03;;;;;;;0.70;0.60;;;;;;;19.92;100.00;-5932.56;6277864;22;20451;-71
2021/09/10 06:12:32;;;;;;;0.70;0.70;;;;;;;19.96;100.00;-4652.84;6277643;22;20385;-71
2021/09/10 06:14:59;;;;;;;0.70;0.60;;;;;;;20.14;100.00;-3295.56;6249760;22;20780;-72
2021/09/10 06:17:26;;;;;;;0.93;0.90;;;;;;;20.19;100.00;-1832.56;6277314;22;20761;-71
2021/09/10 06:19:53;;;;;;;0.87;0.70;;;;;;;20.24;100.00;-378.91;6278424;22;20385;-71
2021/09/10 06:22:19;;;;;;;0.70;0.60;;;;;;;20.31;100.00;968.25;6277660;22;20943;-71
2021/09/10 06:24:46;;;;;;;0.93;0.93;;;;;;;20.40;100.00;2247.31;6277895;22;20426;-71
2021/09/10 06:27:13;;;;;;;0.70;0.63;;;;;;;20.49;100.00;3581.00;6250438;22;20421;-71
2021/09/10 06:29:41;;;;;;;0.70;0.60;;;;;;;20.56;100.00;5071.78;6277317;22;20417;-72
2021/09/10 06:32:09;;;;;;;2.10;1.90;;;;;;;20.56;100.00;6013.28;6277691;22;20387;-71
2021/09/10 06:34:36;;;;;;;0.70;0.60;;;;;;;20.64;100.00;7187.63;6250247;22;20482;-71
2021/09/10 06:37:03;;;;;;;0.70;0.63;;;;;;;20.64;100.00;8391.78;6249976;22;20763;-71
2021/09/10 06:39:31;;;;;;;0.80;0.70;;;;;;;20.78;100.00;9568.50;6277738;22;20476;-72
2021/09/10 06:41:58;;;;;;;1.10;1.00;;;;;;;20.99;100.00;11352.38;6277392;22;20410;-71
2021/09/10 06:44:25;;;;;;;0.70;0.60;;;;;;;21.11;100.00;12930.00;6250479;22;20804;-71
2021/09/10 06:46:53;;;;;;;0.80;0.80;;;;;;;21.25;100.00;14900.75;6249654;22;20411;-71
2021/09/10 06:49:20;;;;;;;0.70;0.60;;;;;;;21.35;100.00;16980.72;6277439;22;20418;-71
2021/09/10 06:51:47;;;;;;;0.70;0.67;;;;;;;21.57;100.00;19539.22;6276759;22;20391;-71
2021/09/10 06:54:14;;;;;;;0.70;0.70;;;;;;;21.75;100.00;21913.81;6277265;22;20407;-72
2021/09/10 06:56:41;;;;;;;0.70;0.60;;;;;;;21.86;100.00;24528.81;6277019;22;20814;-71
2021/09/10 06:59:16;;;;;;;0.70;0.60;;;;;;;22.12;100.00;27470.13;6250215;22;20406;-71
2021/09/10 07:01:44;;;;;;;0.73;0.70;;;;;;;22.20;100.00;30059.28;6277332;22;20404;-72
2021/09/10 07:04:13;;;;;;;0.70;0.60;;;;;;;22.37;100.00;32511.28;6249953;22;20411;-71
2021/09/10 07:06:40;;;;;;;0.80;0.70;;;;;;;22.45;100.00;34103.78;6276292;22;20428;-72
2021/09/10 07:09:07;;;;;;;0.70;0.60;;;;;;;22.66;100.00;35810.13;6276714;22;20501;-71
2021/09/10 07:11:36;;;;;;;0.70;0.60;;;;;;;22.79;100.00;37146.22;6276791;22;20387;-73
2021/09/10 07:14:03;;;;;;;0.77;0.73;;;;;;;22.90;100.00;38279.13;6277072;22;20387;-73
2021/09/10 07:16:30;;;;;;;0.70;0.60;;;;;;;22.95;100.00;39036.91;6249829;22;20407;-72
2021/09/10 07:18:58;;;;;;;0.70;0.60;;;;;;;22.87;100.00;40225.25;6275841;22;20842;-72
2021/09/10 07:21:27;;;;;;;0.80;0.70;;;;;;;23.01;100.00;39839.53;6276772;22;20342;-72
2021/09/10 07:23:54;;;;;;;0.70;0.70;;;;;;;23.06;100.00;38867.78;6276518;22;20436;-73
2021/09/10 07:26:23;;;;;;;0.80;0.70;;;;;;;23.06;100.00;35261.34;6276484;22;20474;-73
2021/09/10 07:28:50;;;;;;;0.70;0.70;;;;;;;23.07;100.00;28540.44;6249697;22;20378;-72
2021/09/10 07:31:17;;;;;;;0.70;0.70;;;;;;;23.26;100.00;18442.47;6276139;22;20448;-72
2021/09/10 07:33:44;;;;;;;0.70;0.70;;;;;;;23.38;100.00;5083.56;6276943;22;20358;-72
2021/09/10 07:36:12;;;;;;;0.70;0.60;;;;;;;23.44;100.00;-5401.72;6277244;22;20411;-72
2021/09/10 07:38:40;;;;;;;0.70;0.60;;;;;;;23.58;100.00;-21146.09;6276329;22;20444;-72
2021/09/10 07:41:07;;;;;;;0.70;0.60;;;;;;;23.77;100.00;-21324.31;6276993;22;20440;-72
2021/09/10 07:43:35;;;;;;;0.70;0.60;;;;;;;23.82;100.00;-21325.56;6276110;22;20385;-72
2021/09/10 07:46:03;;;;;;;0.70;0.60;;;;;;;24.06;100.00;-21332.06;6277335;22;20835;-72
2021/09/10 07:48:30;;;;;;;1.50;1.40;;;;;;;24.43;100.00;-21341.72;6276914;22;20826;-72
2021/09/10 07:50:57;;;;;;;0.70;0.60;;;;;;;24.40;100.00;-21341.03;6249918;22;20391;-72
2021/09/10 07:53:24;;;;;;;0.70;0.60;;;;;;;24.35;100.00;-21339.81;6276322;22;20404;-72
2021/09/10 07:55:52;;;;;;;0.70;0.60;;;;;;;24.21;100.00;-21336.00;6277043;22;20393;-72
2021/09/10 07:58:20;;;;;;;0.70;0.70;;;;;;;24.16;100.00;-21334.53;6276537;22;20393;-72
2021/09/10 08:00:47;;;;;;;0.80;0.80;;;;;;;23.93;100.00;-21328.53;6277120;22;20860;-73
2021/09/10 08:03:15;;;;;;;0.87;0.70;;;;;;;23.98;100.00;-21329.75;6249219;22;20381;-73
2021/09/10 08:05:43;;;;;;;1.17;1.07;;;;;;;24.15;100.00;-21334.25;6250382;22;20449;-72
2021/09/10 08:08:11;;;;;;;1.73;1.63;;;;;;;24.72;100.00;-21349.44;6249209;22;20426;-72
2021/09/10 08:10:38;;;;;;;1.10;1.00;;;;;;;24.81;100.00;-21352.03;6277026;22;20425;-72
2021/09/10 08:13:06;;;;;;;0.70;0.60;;;;;;;24.86;100.00;-21353.25;6276704;22;20429;-72
2021/09/10 08:15:34;;;;;;;0.80;0.70;;;;;;;24.97;100.00;-21356.25;6249308;22;20395;-73
2021/09/10 08:18:04;;;;;;;0.80;0.67;;;;;;;24.82;100.00;-21352.16;6250609;22;20415;-72
2021/09/10 08:20:31;;;;;;;0.70;0.60;;;;;;;24.74;100.00;-21350.00;6276660;22;20878;-72
2021/09/10 08:22:59;;;;;;;1.13;1.03;;;;;;;24.83;100.00;-21352.44;6276266;22;20734;-72
2021/09/10 08:25:26;;;;;;;0.70;0.70;;;;;;;24.62;100.00;-21346.75;6249989;22;20362;-72
2021/09/10 08:27:53;;;;;;;0.80;0.70;;;;;;;24.76;100.00;-21350.53;6249775;22;20407;-72
2021/09/10 08:30:22;;;;;;;0.80;0.80;;;;;;;24.66;100.00;-21347.81;6249726;22;20361;-73
2021/09/10 08:32:49;;;;;;;0.90;0.80;;;;;;;24.54;100.00;-21344.84;6250110;22;20855;-73
2021/09/10 08:35:17;;;;;;;0.80;0.70;;;;;;;24.60;100.00;-21346.34;6276451;22;20361;-72
2021/09/10 08:37:44;;;;;;;1.20;1.10;;;;;;;24.26;100.00;-21337.22;6276608;22;20440;-73
2021/09/10 08:40:11;;;;;;;1.20;0.90;;;;;;;24.33;100.00;-21339.13;6276014;22;20387;-73
2021/09/10 08:42:38;;;;;;;0.70;0.70;;;;;;;24.29;100.00;-21338.03;6276490;22;20470;-72
2021/09/10 08:45:08;;;;;;;0.70;0.60;;;;;;;24.39;100.00;-21340.78;6249859;22;20462;-73
2021/09/10 08:47:38;;;;;;;0.70;0.60;;;;;;;24.28;100.00;-21337.78;6278188;22;20856;-72
2021/09/10 08:50:06;;;;;;;0.70;0.60;;;;;;;24.20;100.00;-21335.59;6250982;22;20855;-73
2021/09/10 08:52:34;;;;;;;0.70;0.60;;;;;;;24.46;100.00;-21342.53;6276248;22;20427;-73
2021/09/10 08:55:07;;;;;;;0.80;0.60;;;;;;;24.81;100.00;-21351.91;6276139;22;20459;-72
2021/09/10 08:57:36;;;;;;;1.40;1.30;;;;;;;24.87;100.00;-21353.53;6248773;22;20439;-73
2021/09/10 09:00:07;;;;;;;0.80;0.70;;;;;;;25.14;100.00;-21360.56;6276299;22;20876;-73
2021/09/10 09:02:36;;;;;;;0.70;0.60;;;;;;;24.93;100.00;-21355.00;6276593;22;20399;-73
2021/09/10 09:05:05;;;;;;;0.80;0.70;;;;;;;25.34;100.00;-21366.00;6248537;22;20437;-72
2021/09/10 09:07:32;;;;;;;0.80;0.80;;;;;;;25.33;100.00;-21365.59;6248831;22;20514;-72
2021/09/10 09:10:00;;;;;;;0.70;0.53;;;;;;;26.02;100.00;-21384.16;6249017;22;20866;-72
2021/09/10 09:12:29;;;;;;;2.40;0.80;;;;;;;26.76;100.00;-21403.53;6249012;22;20486;-72
2021/09/10 09:14:59;;;;;;;0.70;0.50;;;;;;;27.51;100.00;-21423.41;6274604;22;20387;-72
2021/09/10 09:17:28;;;;;;;0.70;0.60;;;;;;;28.57;100.00;-21451.47;6275392;22;20414;-72
2021/09/10 09:20:18;;;;;;;0.90;0.80;;;;;;;28.03;100.00;-21437.31;6276286;22;20390;-73
2021/09/10 09:23:07;;;;;;;0.70;0.50;;;;;;;29.24;100.00;-21469.16;6275452;22;20398;-74
2021/09/10 09:25:36;;;;;;;0.70;0.50;;;;;;;28.29;100.00;-21444.06;6241127;22;20426;-72
2021/09/10 09:28:21;;;;;;;0.80;0.60;;;;;;;27.72;100.00;-21429.06;6248242;22;20395;-72
2021/09/10 09:30:50;;;;;;;0.80;0.77;;;;;;;27.35;100.00;-21419.34;6277011;22;20477;-73
2021/09/10 09:33:18;;;;;;;0.70;0.53;;;;;;;27.14;100.00;-21413.66;6251346;22;20394;-73
2021/09/10 09:35:47;;;;;;;0.70;0.50;;;;;;;26.49;100.00;-21396.63;6250797;22;20371;-72
2021/09/10 09:38:16;;;;;;;0.80;0.60;;;;;;;27.13;100.00;-21413.53;6277467;22;20752;-73
2021/09/10 09:40:52;;;;;;;0.70;0.60;;;;;;;26.90;100.00;-21407.31;6277913;22;20765;-72
2021/09/10 09:43:21;;;;;;;0.70;0.60;;;;;;;26.47;100.00;-21396.09;6277887;22;20368;-72
2021/09/10 09:45:49;;;;;;;1.00;0.90;;;;;;;26.53;100.00;-21397.44;6278469;22;20383;-72
2021/09/10 09:48:18;;;;;;;0.70;0.60;;;;;;;26.00;100.00;-21383.63;6251341;22;20387;-71
2021/09/10 09:50:48;;;;;;;0.70;0.50;;;;;;;25.87;100.00;-21380.09;6278274;22;20872;-71
2021/09/10 09:53:16;;;;;;;1.20;0.70;;;;;;;26.02;100.00;-21384.03;6277126;22;20410;-72
2021/09/10 09:55:45;;;;;;;0.80;0.60;;;;;;;25.62;100.00;-21373.31;6277928;22;20466;-73
2021/09/10 09:58:16;;;;;;;1.30;1.20;;;;;;;25.81;100.00;-21378.47;6250550;22;20418;-71
2021/09/10 10:00:44;;;;;;;0.70;0.60;;;;;;;25.50;100.00;-21370.19;6278406;22;20394;-72
2021/09/10 10:03:12;;;;;;;0.70;0.60;;;;;;;25.57;100.00;-21371.97;6278152;22;20390;-72
2021/09/10 10:05:54;;;;;;;3.03;0.80;;;;;;;26.30;100.00;-21391.47;6277910;22;20413;-71
2021/09/10 10:08:26;;;;;;;0.70;0.60;;;;;;;26.06;100.00;-21385.09;6277568;22;20419;-72
2021/09/10 10:11:02;;;;;;;0.70;0.60;;;;;;;25.51;100.00;-21370.47;6277961;22;20399;-72
2021/09/10 10:13:31;;;;;;;0.70;0.60;;;;;;;25.27;100.00;-21364.25;6277056;22;20838;-71
2021/09/10 10:15:58;;;;;;;0.70;0.60;;;;;;;25.28;100.00;-21364.38;6250341;22;20426;-72
2021/09/10 10:18:45;;;;;;;0.90;0.70;;;;;;;25.67;100.00;-21374.69;6277903;22;20419;-71
2021/09/10 10:21:14;;;;;;;0.70;0.50;;;;;;;25.16;100.00;-21361.13;6277704;22;20433;-72
2021/09/10 10:23:55;;;;;;;0.70;0.60;;;;;;;25.29;100.00;-21364.78;6249941;22;20450;-72
2021/09/10 10:26:40;;;;;;;0.70;0.60;;;;;;;25.13;100.00;-21360.31;6249964;22;20391;-72
2021/09/10 10:29:10;;;;;;;0.70;0.60;;;;;;;25.20;100.00;-21362.34;6250400;22;20490;-71
2021/09/10 10:32:04;;;;;;;0.70;0.60;;;;;;;24.64;100.00;-21347.28;6225105;22;20413;-72
2021/09/10 10:34:33;;;;;;;0.73;0.60;;;;;;;24.69;100.00;-21348.63;6277426;22;20390;-73
2021/09/10 10:37:02;;;;;;;0.70;0.60;;;;;;;24.11;100.00;-21333.28;6225195;22;20407;-72
2021/09/10 10:39:29;;;;;;;1.50;0.80;;;;;;;23.96;100.00;-21329.34;6250062;22;20430;-72
2021/09/10 10:42:02;;;;;;;0.80;0.70;;;;;;;23.13;100.00;-21307.34;6277079;22;20388;-72
2021/09/10 10:44:48;;;;;;;0.80;0.70;;;;;;;22.54;100.00;-21291.53;6250665;22;20456;-71
2021/09/10 10:47:30;;;;;;;0.80;0.70;;;;;;;22.27;100.00;-21284.19;6250511;22;20410;-71
2021/09/10 10:49:58;;;;;;;0.80;0.60;;;;;;;22.49;100.00;-21290.19;6249989;22;20379;-72
2021/09/10 10:52:35;;;;;;;0.80;0.70;;;;;;;22.69;100.00;-21295.50;6276797;22;20415;-71
2021/09/10 10:55:17;;;;;;;0.70;0.60;;;;;;;22.82;100.00;-21298.88;6277461;22;20341;-72
2021/09/10 10:57:44;;;;;;;0.80;0.60;;;;;;;22.74;100.00;-21296.72;6251032;22;20684;-70
2021/09/10 11:00:46;;;;;;;1.00;0.90;;;;;;;22.76;100.00;-21297.41;6250888;22;20366;-71
2021/09/10 11:03:33;;;;;;;0.80;0.60;;;;;;;22.79;100.00;-21298.22;6251489;22;20463;-71
2021/09/10 11:06:26;;;;;;;0.80;0.60;;;;;;;22.92;100.00;-21301.47;6277369;22;20715;-71
2021/09/10 11:08:55;;;;;;;0.70;0.70;;;;;;;22.98;100.00;-21303.25;6274904;22;20893;-73
2021/09/10 11:11:26;;;;;;;0.70;0.60;;;;;;;23.12;100.00;-21307.06;6249318;22;20437;-73
2021/09/10 11:13:53;;;;;;;0.70;0.60;;;;;;;23.32;100.00;-21312.22;6277975;22;20404;-73
2021/09/10 11:16:28;;;;;;;0.70;0.60;;;;;;;23.41;100.00;-21314.66;6277570;22;20470;-73
2021/09/10 11:18:56;;;;;;;0.90;0.80;;;;;;;23.61;100.00;-21319.97;6277524;22;21031;-73
2021/09/10 11:21:28;;;;;;;0.70;0.70;;;;;;;23.54;100.00;-21318.22;6277059;22;20399;-73
2021/09/10 11:24:06;;;;;;;0.70;0.60;;;;;;;23.37;100.00;-21313.59;6276331;22;20461;-73
2021/09/10 11:26:34;;;;;;;0.80;0.70;;;;;;;23.27;100.00;-21310.88;6276168;22;20354;-73
2021/09/10 11:29:09;;;;;;;0.80;0.70;;;;;;;24.06;100.00;-21332.06;6277182;22;20359;-72